sensor_id;sensor_type;location;lat;lon;timestamp;pressure;altitude;pressure_sealevel;temperature;humidity
47154;BME280;32907;41.412;2.164;2022-10-16T00:01:43;100539.09;;;25.58;58.32
47154;BME280;32907;41.412;2.164;2022-10-16T00:04:10;100567.50;;;25.71;58.06
47154;BME280;32907;41.412;2.164;2022-10-16T00:06:38;100580.75;;;25.78;57.78
47154;BME280;32907;41.412;2.164;2022-10-16T00:09:06;100552.50;;;25.60;57.94
47154;BME280;32907;41.412;2.164;2022-10-16T00:11:36;100598.66;;;25.84;57.78
47154;BME280;32907;41.412;2.164;2022-10-16T00:14:07;100541.41;;;25.48;57.74
47154;BME280;32907;41.412;2.164;2022-10-16T00:16:36;100600.91;;;25.82;57.64
47154;BME280;32907;41.412;2.164;2022-10-16T00:19:04;100587.38;;;25.77;57.79
47154;BME280;32907;41.412;2.164;2022-10-16T00:21:32;100573.16;;;25.75;57.48
47154;BME280;32907;41.412;2.164;2022-10-16T00:24:19;100575.59;;;25.76;57.68
47154;BME280;32907;41.412;2.164;2022-10-16T00:26:49;100575.91;;;25.75;57.25
47154;BME280;32907;41.412;2.164;2022-10-16T00:29:17;100573.97;;;25.75;57.26
47154;BME280;32907;41.412;2.164;2022-10-16T00:31:44;100532.03;;;25.49;57.23
47154;BME280;32907;41.412;2.164;2022-10-16T00:34:12;100581.38;;;25.83;57.24
47154;BME280;32907;41.412;2.164;2022-10-16T00:36:40;100574.25;;;25.82;57.15
47154;BME280;32907;41.412;2.164;2022-10-16T00:39:08;100543.59;;;25.63;57.04
47154;BME280;32907;41.412;2.164;2022-10-16T00:41:36;100557.00;;;25.73;56.84
47154;BME280;32907;41.412;2.164;2022-10-16T00:47:12;100569.41;;;25.79;57.28
47154;BME280;32907;41.412;2.164;2022-10-16T00:49:42;100527.97;;;25.55;57.15
47154;BME280;32907;41.412;2.164;2022-10-16T00:52:10;100563.94;;;25.79;57.03
47154;BME280;32907;41.412;2.164;2022-10-16T00:54:38;100546.19;;;25.68;56.82
47154;BME280;32907;41.412;2.164;2022-10-16T00:57:06;100562.31;;;25.78;56.96
47154;BME280;32907;41.412;2.164;2022-10-16T00:59:37;100547.16;;;25.72;56.91
47154;BME280;32907;41.412;2.164;2022-10-16T01:02:10;100556.50;;;25.80;56.84
47154;BME280;32907;41.412;2.164;2022-10-16T01:04:41;100549.84;;;25.81;56.68
47154;BME280;32907;41.412;2.164;2022-10-16T01:10:13;100536.13;;;25.81;56.37
47154;BME280;32907;41.412;2.164;2022-10-16T01:12:50;100547.44;;;25.79;56.81
47154;BME280;32907;41.412;2.164;2022-10-16T01:15:26;100483.47;;;25.32;56.44
47154;BME280;32907;41.412;2.164;2022-10-16T01:18:11;100551.34;;;25.78;57.03
47154;BME280;32907;41.412;2.164;2022-10-16T01:20:54;100520.97;;;25.66;56.49
47154;BME280;32907;41.412;2.164;2022-10-16T01:31:32;100542.63;;;25.76;56.24
47154;BME280;32907;41.412;2.164;2022-10-16T01:34:07;100501.34;;;25.47;56.38
47154;BME280;32907;41.412;2.164;2022-10-16T01:36:45;100518.72;;;25.68;56.21
47154;BME280;32907;41.412;2.164;2022-10-16T01:39:15;100485.34;;;25.49;56.07
47154;BME280;32907;41.412;2.164;2022-10-16T01:41:54;100511.63;;;25.67;56.37
47154;BME280;32907;41.412;2.164;2022-10-16T01:44:26;100505.50;;;25.61;55.93
47154;BME280;32907;41.412;2.164;2022-10-16T01:46:56;100517.75;;;25.64;56.28
47154;BME280;32907;41.412;2.164;2022-10-16T01:49:27;100484.06;;;25.46;56.53
47154;BME280;32907;41.412;2.164;2022-10-16T01:51:59;100528.22;;;25.71;56.07
47154;BME280;32907;41.412;2.164;2022-10-16T01:54:28;100496.31;;;25.49;56.27
47154;BME280;32907;41.412;2.164;2022-10-16T01:56:59;100539.22;;;25.71;56.28
47154;BME280;32907;41.412;2.164;2022-10-16T01:59:31;100489.13;;;25.35;56.44
47154;BME280;32907;41.412;2.164;2022-10-16T02:02:02;100549.41;;;25.70;56.30
47154;BME280;32907;41.412;2.164;2022-10-16T02:04:34;100543.09;;;25.70;56.72
47154;BME280;32907;41.412;2.164;2022-10-16T02:07:04;100544.72;;;25.71;56.39
47154;BME280;32907;41.412;2.164;2022-10-16T02:09:34;100542.28;;;25.69;56.59
47154;BME280;32907;41.412;2.164;2022-10-16T02:12:09;100494.44;;;25.32;56.33
47154;BME280;32907;41.412;2.164;2022-10-16T02:14:38;100558.78;;;25.69;56.49
47154;BME280;32907;41.412;2.164;2022-10-16T02:17:13;100563.47;;;25.69;56.75
47154;BME280;32907;41.412;2.164;2022-10-16T02:19:42;100558.78;;;25.69;56.82
47154;BME280;32907;41.412;2.164;2022-10-16T02:22:18;100563.94;;;25.71;56.53
47154;BME280;32907;41.412;2.164;2022-10-16T02:25:09;100569.75;;;25.69;56.74
47154;BME280;32907;41.412;2.164;2022-10-16T02:32:58;100573.66;;;25.68;56.28
47154;BME280;32907;41.412;2.164;2022-10-16T02:35:27;100536.53;;;25.53;56.50
47154;BME280;32907;41.412;2.164;2022-10-16T02:37:56;100551.69;;;25.68;56.67
47154;BME280;32907;41.412;2.164;2022-10-16T02:40:25;100506.19;;;25.41;56.30
47154;BME280;32907;41.412;2.164;2022-10-16T02:42:54;100483.47;;;25.32;56.25
47154;BME280;32907;41.412;2.164;2022-10-16T02:45:23;100556.03;;;25.69;56.57
47154;BME280;32907;41.412;2.164;2022-10-16T02:47:51;100406.94;;;24.83;56.74
47154;BME280;32907;41.412;2.164;2022-10-16T02:50:19;100548.28;;;25.71;56.60
47154;BME280;32907;41.412;2.164;2022-10-16T02:52:46;100519.72;;;25.55;56.47
47154;BME280;32907;41.412;2.164;2022-10-16T02:55:14;100502.03;;;25.44;56.56
47154;BME280;32907;41.412;2.164;2022-10-16T02:57:42;100547.78;;;25.69;56.67
47154;BME280;32907;41.412;2.164;2022-10-16T03:00:12;100507.31;;;25.49;56.48
47154;BME280;32907;41.412;2.164;2022-10-16T03:02:42;100497.34;;;25.44;56.57
47154;BME280;32907;41.412;2.164;2022-10-16T03:05:10;100489.59;;;25.37;56.69
47154;BME280;32907;41.412;2.164;2022-10-16T03:07:38;100541.66;;;25.72;56.64
47154;BME280;32907;41.412;2.164;2022-10-16T03:10:07;100517.16;;;25.50;56.37
47154;BME280;32907;41.412;2.164;2022-10-16T03:12:34;100522.13;;;25.56;56.70
47154;BME280;32907;41.412;2.164;2022-10-16T03:15:02;100538.59;;;25.65;56.40
47154;BME280;32907;41.412;2.164;2022-10-16T03:17:31;100526.97;;;25.68;56.66
47154;BME280;32907;41.412;2.164;2022-10-16T03:19:59;100510.66;;;25.63;56.48
47154;BME280;32907;41.412;2.164;2022-10-16T03:22:27;100472.34;;;25.28;56.77
47154;BME280;32907;41.412;2.164;2022-10-16T03:24:55;100473.63;;;25.31;56.40
47154;BME280;32907;41.412;2.164;2022-10-16T03:27:23;100511.97;;;25.57;56.48
47154;BME280;32907;41.412;2.164;2022-10-16T03:29:51;100522.28;;;25.69;56.74
47154;BME280;32907;41.412;2.164;2022-10-16T03:32:19;100503.94;;;25.52;56.67
47154;BME280;32907;41.412;2.164;2022-10-16T03:34:47;100485.03;;;25.42;56.36
47154;BME280;32907;41.412;2.164;2022-10-16T03:37:15;100502.50;;;25.46;56.55
47154;BME280;32907;41.412;2.164;2022-10-16T03:39:43;100537.94;;;25.68;56.52
47154;BME280;32907;41.412;2.164;2022-10-16T03:42:11;100455.59;;;25.21;56.83
47154;BME280;32907;41.412;2.164;2022-10-16T03:44:38;100490.41;;;25.38;56.84
47154;BME280;32907;41.412;2.164;2022-10-16T03:47:06;100532.75;;;25.66;56.61
47154;BME280;32907;41.412;2.164;2022-10-16T03:49:34;100522.63;;;25.58;56.83
47154;BME280;32907;41.412;2.164;2022-10-16T03:52:02;100508.94;;;25.41;56.67
47154;BME280;32907;41.412;2.164;2022-10-16T03:54:29;100539.09;;;25.67;56.84
47154;BME280;32907;41.412;2.164;2022-10-16T03:56:57;100522.59;;;25.67;56.91
47154;BME280;32907;41.412;2.164;2022-10-16T03:59:25;100499.38;;;25.56;56.67
47154;BME280;32907;41.412;2.164;2022-10-16T04:01:53;100532.44;;;25.68;56.74
47154;BME280;32907;41.412;2.164;2022-10-16T04:04:21;100491.25;;;25.30;56.84
47154;BME280;32907;41.412;2.164;2022-10-16T04:06:49;100542.94;;;25.66;56.71
47154;BME280;32907;41.412;2.164;2022-10-16T04:09:16;100528.59;;;25.60;56.79
47154;BME280;32907;41.412;2.164;2022-10-16T04:11:44;100543.44;;;25.68;56.64
47154;BME280;32907;41.412;2.164;2022-10-16T04:14:12;100522.00;;;25.53;56.77
47154;BME280;32907;41.412;2.164;2022-10-16T04:16:41;100546.19;;;25.68;57.08
47154;BME280;32907;41.412;2.164;2022-10-16T04:19:09;100551.69;;;25.68;56.87
47154;BME280;32907;41.412;2.164;2022-10-16T04:21:37;100534.59;;;25.54;56.81
47154;BME280;32907;41.412;2.164;2022-10-16T04:24:05;100565.41;;;25.68;57.18
47154;BME280;32907;41.412;2.164;2022-10-16T04:26:33;100523.19;;;25.43;56.69
47154;BME280;32907;41.412;2.164;2022-10-16T04:29:01;100538.47;;;25.53;56.97
47154;BME280;32907;41.412;2.164;2022-10-16T04:31:28;100529.78;;;25.42;56.86
47154;BME280;32907;41.412;2.164;2022-10-16T04:33:56;100504.78;;;25.26;56.84
47154;BME280;32907;41.412;2.164;2022-10-16T04:36:23;100522.38;;;25.43;56.54
47154;BME280;32907;41.412;2.164;2022-10-16T04:38:55;100544.56;;;25.58;56.61
47154;BME280;32907;41.412;2.164;2022-10-16T04:41:23;100558.59;;;25.65;56.68
47154;BME280;32907;41.412;2.164;2022-10-16T04:43:51;100534.16;;;25.43;56.72
47154;BME280;32907;41.412;2.164;2022-10-16T04:46:18;100570.41;;;25.66;56.46
47154;BME280;32907;41.412;2.164;2022-10-16T04:48:46;100539.13;;;25.50;56.52
47154;BME280;32907;41.412;2.164;2022-10-16T04:51:14;100506.25;;;25.32;56.52
47154;BME280;32907;41.412;2.164;2022-10-16T04:53:41;100551.06;;;25.54;56.91
47154;BME280;32907;41.412;2.164;2022-10-16T04:56:09;100511.91;;;25.36;57.07
47154;BME280;32907;41.412;2.164;2022-10-16T04:58:37;100534.75;;;25.49;56.84
47154;BME280;32907;41.412;2.164;2022-10-16T05:01:04;100480.66;;;25.11;56.44
47154;BME280;32907;41.412;2.164;2022-10-16T05:03:32;100548.78;;;25.56;56.59
47154;BME280;32907;41.412;2.164;2022-10-16T05:06:00;100580.09;;;25.72;56.69
47154;BME280;32907;41.412;2.164;2022-10-16T05:08:27;100574.63;;;25.72;56.46
47154;BME280;32907;41.412;2.164;2022-10-16T05:10:55;100551.22;;;25.57;56.40
47154;BME280;32907;41.412;2.164;2022-10-16T05:13:23;100553.16;;;25.57;56.55
47154;BME280;32907;41.412;2.164;2022-10-16T05:15:51;100555.91;;;25.57;56.41
47154;BME280;32907;41.412;2.164;2022-10-16T05:18:19;100545.75;;;25.49;55.90
47154;BME280;32907;41.412;2.164;2022-10-16T05:20:46;100584.63;;;25.68;55.93
47154;BME280;32907;41.412;2.164;2022-10-16T05:23:14;100538.84;;;25.34;55.87
47154;BME280;32907;41.412;2.164;2022-10-16T05:25:42;100595.44;;;25.64;55.84
47154;BME280;32907;41.412;2.164;2022-10-16T05:28:09;100562.09;;;25.36;55.78
47154;BME280;32907;41.412;2.164;2022-10-16T05:30:37;100580.66;;;25.39;55.98
47154;BME280;32907;41.412;2.164;2022-10-16T05:33:07;100582.09;;;25.46;56.04
47154;BME280;32907;41.412;2.164;2022-10-16T05:35:35;100614.06;;;25.59;56.04
47154;BME280;32907;41.412;2.164;2022-10-16T05:38:02;100553.38;;;25.26;56.07
47154;BME280;32907;41.412;2.164;2022-10-16T05:40:30;100579.34;;;25.46;56.05
47154;BME280;32907;41.412;2.164;2022-10-16T05:42:58;100619.56;;;25.59;55.87
47154;BME280;32907;41.412;2.164;2022-10-16T05:45:25;100619.56;;;25.59;55.50
47154;BME280;32907;41.412;2.164;2022-10-16T05:47:53;100621.31;;;25.55;55.64
47154;BME280;32907;41.412;2.164;2022-10-16T05:50:21;100622.28;;;25.50;55.88
47154;BME280;32907;41.412;2.164;2022-10-16T05:52:48;100592.31;;;25.36;55.94
47154;BME280;32907;41.412;2.164;2022-10-16T05:55:16;100609.41;;;25.51;55.78
47154;BME280;32907;41.412;2.164;2022-10-16T05:57:44;100618.72;;;25.58;56.05
47154;BME280;32907;41.412;2.164;2022-10-16T06:00:14;100581.78;;;25.38;55.77
47154;BME280;32907;41.412;2.164;2022-10-16T06:02:42;100613.25;;;25.50;55.81
47154;BME280;32907;41.412;2.164;2022-10-16T06:05:10;100580.53;;;25.27;56.18
47154;BME280;32907;41.412;2.164;2022-10-16T06:07:38;100618.25;;;25.56;56.53
47154;BME280;32907;41.412;2.164;2022-10-16T06:10:06;100623.13;;;25.51;55.81
47154;BME280;32907;41.412;2.164;2022-10-16T06:12:34;100628.13;;;25.49;56.05
47154;BME280;32907;41.412;2.164;2022-10-16T06:15:01;100621.19;;;25.43;56.05
47154;BME280;32907;41.412;2.164;2022-10-16T06:17:29;100620.38;;;25.42;56.30
47154;BME280;32907;41.412;2.164;2022-10-16T06:19:57;100638.59;;;25.55;55.95
47154;BME280;32907;41.412;2.164;2022-10-16T06:22:25;100611.03;;;25.43;56.12
47154;BME280;32907;41.412;2.164;2022-10-16T06:24:52;100649.25;;;25.57;56.02
47154;BME280;32907;41.412;2.164;2022-10-16T06:27:20;100637.47;;;25.56;56.17
47154;BME280;32907;41.412;2.164;2022-10-16T06:29:48;100636.66;;;25.56;56.19
47154;BME280;32907;41.412;2.164;2022-10-16T06:32:15;100612.81;;;25.30;56.10
47154;BME280;32907;41.412;2.164;2022-10-16T06:34:45;100437.59;;;24.16;55.99
47154;BME280;32907;41.412;2.164;2022-10-16T06:37:12;100614.28;;;25.28;56.04
47154;BME280;32907;41.412;2.164;2022-10-16T06:39:40;100580.53;;;25.10;56.39
47154;BME280;32907;41.412;2.164;2022-10-16T06:42:08;100634.09;;;25.33;56.50
47154;BME280;32907;41.412;2.164;2022-10-16T06:44:36;100607.66;;;25.20;55.87
47154;BME280;32907;41.412;2.164;2022-10-16T06:47:03;100657.34;;;25.53;56.26
47154;BME280;32907;41.412;2.164;2022-10-16T06:49:32;100597.97;;;25.14;56.36
47154;BME280;32907;41.412;2.164;2022-10-16T06:51:59;100661.72;;;25.54;56.43
47154;BME280;32907;41.412;2.164;2022-10-16T06:54:28;100668.00;;;25.55;56.12
47154;BME280;32907;41.412;2.164;2022-10-16T06:56:56;100644.94;;;25.38;56.49
47154;BME280;32907;41.412;2.164;2022-10-16T06:59:24;100639.44;;;25.38;56.13
47154;BME280;32907;41.412;2.164;2022-10-16T07:01:52;100672.69;;;25.54;56.12
47154;BME280;32907;41.412;2.164;2022-10-16T07:04:19;100643.78;;;25.39;56.40
47154;BME280;32907;41.412;2.164;2022-10-16T07:06:47;100672.69;;;25.54;56.32
47154;BME280;32907;41.412;2.164;2022-10-16T07:09:15;100641.88;;;25.31;56.35
47154;BME280;32907;41.412;2.164;2022-10-16T07:11:42;100672.03;;;25.49;56.11
47154;BME280;32907;41.412;2.164;2022-10-16T07:14:16;100625.56;;;25.18;56.20
47154;BME280;32907;41.412;2.164;2022-10-16T07:16:44;100652.50;;;25.33;56.25
47154;BME280;32907;41.412;2.164;2022-10-16T07:19:12;100631.84;;;25.18;56.60
47154;BME280;32907;41.412;2.164;2022-10-16T07:21:41;100673.84;;;25.45;56.78
47154;BME280;32907;41.412;2.164;2022-10-16T07:24:15;100680.94;;;25.46;56.65
47154;BME280;32907;41.412;2.164;2022-10-16T07:26:45;100693.84;;;25.54;56.62
47154;BME280;32907;41.412;2.164;2022-10-16T07:29:18;100684.16;;;25.48;56.74
47154;BME280;32907;41.412;2.164;2022-10-16T07:31:47;100704.69;;;25.59;56.21
47154;BME280;32907;41.412;2.164;2022-10-16T07:34:17;100711.78;;;25.60;56.39
47154;BME280;32907;41.412;2.164;2022-10-16T07:36:48;100711.44;;;25.61;56.92
47154;BME280;32907;41.412;2.164;2022-10-16T07:39:16;100693.84;;;25.54;56.67
47154;BME280;32907;41.412;2.164;2022-10-16T07:41:44;100679.97;;;25.42;56.81
47154;BME280;32907;41.412;2.164;2022-10-16T07:44:12;100683.03;;;25.49;57.30
47154;BME280;32907;41.412;2.164;2022-10-16T07:46:40;100730.34;;;25.80;57.10
47154;BME280;32907;41.412;2.164;2022-10-16T07:49:08;100731.97;;;25.81;56.43
47154;BME280;32907;41.412;2.164;2022-10-16T07:51:36;100698.84;;;25.60;56.27
47154;BME280;32907;41.412;2.164;2022-10-16T07:54:05;100733.09;;;25.72;56.20
47154;BME280;32907;41.412;2.164;2022-10-16T07:56:33;100742.47;;;25.62;56.03
47154;BME280;32907;41.412;2.164;2022-10-16T07:59:02;100684.31;;;25.17;55.96
47154;BME280;32907;41.412;2.164;2022-10-16T08:01:30;100731.00;;;25.43;56.20
47154;BME280;32907;41.412;2.164;2022-10-16T08:03:58;100746.16;;;25.49;55.77
47154;BME280;32907;41.412;2.164;2022-10-16T08:06:26;100751.19;;;25.55;55.58
47154;BME280;32907;41.412;2.164;2022-10-16T08:08:55;100754.25;;;25.54;55.80
47154;BME280;32907;41.412;2.164;2022-10-16T08:11:23;100744.22;;;25.41;55.45
47154;BME280;32907;41.412;2.164;2022-10-16T08:13:51;100765.25;;;25.36;55.31
47154;BME280;32907;41.412;2.164;2022-10-16T08:16:19;100750.53;;;25.32;55.92
47154;BME280;32907;41.412;2.164;2022-10-16T08:18:47;100766.84;;;25.37;55.90
47154;BME280;32907;41.412;2.164;2022-10-16T08:21:18;100729.53;;;25.10;55.91
47154;BME280;32907;41.412;2.164;2022-10-16T08:23:49;100764.25;;;25.32;56.31
47154;BME280;32907;41.412;2.164;2022-10-16T08:26:25;100773.94;;;25.30;56.49
47154;BME280;32907;41.412;2.164;2022-10-16T08:28:53;100742.75;;;25.08;56.94
47154;BME280;32907;41.412;2.164;2022-10-16T08:31:21;100726.94;;;25.05;56.16
47154;BME280;32907;41.412;2.164;2022-10-16T08:33:49;100786.22;;;25.32;57.23
47154;BME280;32907;41.412;2.164;2022-10-16T08:36:17;100782.84;;;25.35;56.47
47154;BME280;32907;41.412;2.164;2022-10-16T08:38:47;100789.94;;;25.36;56.33
47154;BME280;32907;41.412;2.164;2022-10-16T08:41:55;100789.63;;;25.38;56.53
47154;BME280;32907;41.412;2.164;2022-10-16T08:47:02;100791.88;;;25.36;56.61
47154;BME280;32907;41.412;2.164;2022-10-16T08:49:34;100794.31;;;25.37;56.73
47154;BME280;32907;41.412;2.164;2022-10-16T08:52:02;100788.00;;;25.37;56.97
47154;BME280;32907;41.412;2.164;2022-10-16T08:54:46;100799.78;;;25.37;56.90
47154;BME280;32907;41.412;2.164;2022-10-16T08:57:22;100795.91;;;25.38;56.41
47154;BME280;32907;41.412;2.164;2022-10-16T08:59:52;100746.81;;;25.11;56.75
47154;BME280;32907;41.412;2.164;2022-10-16T09:02:40;100793.34;;;25.51;57.01
47154;BME280;32907;41.412;2.164;2022-10-16T09:05:23;100780.91;;;25.62;56.66
47154;BME280;32907;41.412;2.164;2022-10-16T09:08:27;100793.53;;;25.72;55.88
47154;BME280;32907;41.412;2.164;2022-10-16T09:10:59;100791.44;;;25.77;55.87
47154;BME280;32907;41.412;2.164;2022-10-16T09:13:56;100800.63;;;25.81;56.28
47154;BME280;32907;41.412;2.164;2022-10-16T09:24:12;100817.94;;;25.99;56.10
47154;BME280;32907;41.412;2.164;2022-10-16T09:26:41;100788.34;;;25.87;56.20
47154;BME280;32907;41.412;2.164;2022-10-16T09:29:18;100820.03;;;26.02;55.67
47154;BME280;32907;41.412;2.164;2022-10-16T09:31:49;100812.59;;;25.94;55.98
47154;BME280;32907;41.412;2.164;2022-10-16T09:34:30;100817.63;;;26.01;55.56
47154;BME280;32907;41.412;2.164;2022-10-16T09:36:59;100790.78;;;25.80;55.58
47154;BME280;32907;41.412;2.164;2022-10-16T09:39:28;100746.97;;;25.49;55.86
47154;BME280;32907;41.412;2.164;2022-10-16T09:41:56;100815.03;;;25.96;55.50
47154;BME280;32907;41.412;2.164;2022-10-16T09:44:30;100820.03;;;26.02;55.54
47154;BME280;32907;41.412;2.164;2022-10-16T09:47:04;100818.25;;;25.98;55.57
47154;BME280;32907;41.412;2.164;2022-10-16T09:49:32;100827.00;;;26.00;55.30
47154;BME280;32907;41.412;2.164;2022-10-16T09:52:14;100825.03;;;26.09;55.00
47154;BME280;32907;41.412;2.164;2022-10-16T09:54:53;100783.34;;;25.81;54.66
47154;BME280;32907;41.412;2.164;2022-10-16T09:57:22;100829.53;;;26.13;55.11
47154;BME280;32907;41.412;2.164;2022-10-16T09:59:53;100740.38;;;25.59;54.80
47154;BME280;32907;41.412;2.164;2022-10-16T10:02:34;100812.25;;;26.04;55.33
47154;BME280;32907;41.412;2.164;2022-10-16T10:05:17;100834.22;;;26.21;54.74
47154;BME280;32907;41.412;2.164;2022-10-16T10:07:56;100846.81;;;26.22;55.04
47154;BME280;32907;41.412;2.164;2022-10-16T10:10:29;100794.81;;;26.00;54.73
47154;BME280;32907;41.412;2.164;2022-10-16T10:12:58;100811.78;;;26.11;54.87
47154;BME280;32907;41.412;2.164;2022-10-16T10:15:28;100830.03;;;26.24;55.27
47154;BME280;32907;41.412;2.164;2022-10-16T10:18:00;100828.41;;;26.23;55.23
47154;BME280;32907;41.412;2.164;2022-10-16T10:20:33;100803.69;;;26.06;55.11
47154;BME280;32907;41.412;2.164;2022-10-16T10:23:22;100833.25;;;26.26;54.37
47154;BME280;32907;41.412;2.164;2022-10-16T10:26:13;100835.19;;;26.26;54.57
47154;BME280;32907;41.412;2.164;2022-10-16T10:31:48;100831.97;;;26.24;54.50
47154;BME280;32907;41.412;2.164;2022-10-16T10:37:33;100813.72;;;26.10;54.55
47154;BME280;32907;41.412;2.164;2022-10-16T10:40:15;100827.28;;;26.24;54.73
47154;BME280;32907;41.412;2.164;2022-10-16T10:46:04;100794.63;;;26.05;54.70
47154;BME280;32907;41.412;2.164;2022-10-16T10:48:54;100832.59;;;26.29;55.07
47154;BME280;32907;41.412;2.164;2022-10-16T10:51:42;100838.41;;;26.28;55.16
47154;BME280;32907;41.412;2.164;2022-10-16T10:54:41;100823.88;;;26.18;55.17
47154;BME280;32907;41.412;2.164;2022-10-16T11:13:51;100815.94;;;26.34;55.95
47154;BME280;32907;41.412;2.164;2022-10-16T11:16:27;100813.66;;;26.36;55.63
47154;BME280;32907;41.412;2.164;2022-10-16T11:25:04;100819.97;;;26.37;55.94
47154;BME280;32907;41.412;2.164;2022-10-16T11:27:42;100817.72;;;26.39;56.07
47154;BME280;32907;41.412;2.164;2022-10-16T11:30:21;100817.88;;;26.42;56.48
47154;BME280;32907;41.412;2.164;2022-10-16T11:35:50;100810.78;;;26.41;55.80
47154;BME280;32907;41.412;2.164;2022-10-16T11:38:27;100804.47;;;26.41;56.05
47154;BME280;32907;41.412;2.164;2022-10-16T11:41:02;100785.38;;;26.27;56.47
47154;BME280;32907;41.412;2.164;2022-10-16T11:43:38;100804.28;;;26.37;56.38
47154;BME280;32907;41.412;2.164;2022-10-16T11:46:18;100771.16;;;26.25;56.67
47154;BME280;32907;41.412;2.164;2022-10-16T11:49:03;100800.25;;;26.43;56.88
47154;BME280;32907;41.412;2.164;2022-10-16T11:51:39;100761.94;;;26.21;56.54
47154;BME280;32907;41.412;2.164;2022-10-16T11:54:21;100775.53;;;26.26;57.01
47154;BME280;32907;41.412;2.164;2022-10-16T11:56:55;100786.50;;;26.35;57.13
47154;BME280;32907;41.412;2.164;2022-10-16T11:59:40;100777.47;;;26.26;57.50
47154;BME280;32907;41.412;2.164;2022-10-16T12:08:12;100780.66;;;26.36;57.42
47154;BME280;32907;41.412;2.164;2022-10-16T12:10:43;100779.72;;;26.32;57.43
47154;BME280;32907;41.412;2.164;2022-10-16T12:13:31;100776.63;;;26.34;57.64
47154;BME280;32907;41.412;2.164;2022-10-16T12:18:48;100767.75;;;26.28;57.32
47154;BME280;32907;41.412;2.164;2022-10-16T12:21:17;100760.50;;;26.24;57.66
47154;BME280;32907;41.412;2.164;2022-10-16T12:23:47;100772.41;;;26.36;57.36
47154;BME280;32907;41.412;2.164;2022-10-16T12:26:26;100703.66;;;25.89;57.60
47154;BME280;32907;41.412;2.164;2022-10-16T12:28:56;100775.16;;;26.36;57.69
47154;BME280;32907;41.412;2.164;2022-10-16T12:31:37;100738.22;;;26.16;57.53
47154;BME280;32907;41.412;2.164;2022-10-16T12:37:08;100767.59;;;26.33;57.66
47154;BME280;32907;41.412;2.164;2022-10-16T12:39:37;100768.06;;;26.35;57.64
47154;BME280;32907;41.412;2.164;2022-10-16T12:44:54;100782.59;;;26.44;57.60
47154;BME280;32907;41.412;2.164;2022-10-16T12:47:49;100766.31;;;26.39;57.74
47154;BME280;32907;41.412;2.164;2022-10-16T12:50:35;100770.16;;;26.38;57.93
47154;BME280;32907;41.412;2.164;2022-10-16T12:53:26;100725.44;;;26.12;57.82
47154;BME280;32907;41.412;2.164;2022-10-16T13:03:54;100764.06;;;26.24;58.32
47154;BME280;32907;41.412;2.164;2022-10-16T13:14:32;100788.78;;;26.41;58.43
47154;BME280;32907;41.412;2.164;2022-10-16T13:17:46;100788.09;;;26.44;58.21
47154;BME280;32907;41.412;2.164;2022-10-16T13:20:21;100762.41;;;26.32;58.38
47154;BME280;32907;41.412;2.164;2022-10-16T13:28:47;100775.84;;;26.33;58.19
47154;BME280;32907;41.412;2.164;2022-10-16T13:31:22;100778.75;;;26.28;58.69
47154;BME280;32907;41.412;2.164;2022-10-16T13:33:54;100715.78;;;25.88;58.46
47154;BME280;32907;41.412;2.164;2022-10-16T13:36:26;100737.13;;;25.91;58.64
47154;BME280;32907;41.412;2.164;2022-10-16T13:41:41;100756.50;;;26.04;58.94
47154;BME280;32907;41.412;2.164;2022-10-16T13:44:19;100792.03;;;26.26;58.80
47154;BME280;32907;41.412;2.164;2022-10-16T13:46:58;100786.84;;;26.25;58.75
47154;BME280;32907;41.412;2.164;2022-10-16T13:49:26;100782.31;;;26.20;59.03
47154;BME280;32907;41.412;2.164;2022-10-16T13:51:59;100783.94;;;26.21;58.71
47154;BME280;32907;41.412;2.164;2022-10-16T13:54:27;100793.28;;;26.29;58.86
47154;BME280;32907;41.412;2.164;2022-10-16T13:57:04;100791.69;;;26.28;58.86
47154;BME280;32907;41.412;2.164;2022-10-16T13:59:53;100786.53;;;26.26;58.87
47154;BME280;32907;41.412;2.164;2022-10-16T14:02:29;100768.41;;;26.25;58.91
47154;BME280;32907;41.412;2.164;2022-10-16T14:04:59;100773.91;;;26.25;58.74
47154;BME280;32907;41.412;2.164;2022-10-16T14:07:29;100753.69;;;26.21;58.77
47154;BME280;32907;41.412;2.164;2022-10-16T14:10:04;100768.72;;;26.32;58.61
47154;BME280;32907;41.412;2.164;2022-10-16T14:12:34;100771.94;;;26.34;59.08
47154;BME280;32907;41.412;2.164;2022-10-16T14:15:02;100687.19;;;25.81;58.96
47154;BME280;32907;41.412;2.164;2022-10-16T14:17:32;100777.78;;;26.33;59.56
47154;BME280;32907;41.412;2.164;2022-10-16T14:20:04;100775.50;;;26.35;59.41
47154;BME280;32907;41.412;2.164;2022-10-16T14:22:40;100780.19;;;26.43;59.64
47154;BME280;32907;41.412;2.164;2022-10-16T14:25:30;100782.09;;;26.51;59.88
47154;BME280;32907;41.412;2.164;2022-10-16T14:28:18;100772.06;;;26.46;59.00
47154;BME280;32907;41.412;2.164;2022-10-16T14:30:53;100776.75;;;26.55;59.39
47154;BME280;32907;41.412;2.164;2022-10-16T14:38:30;100773.69;;;26.56;58.38
47154;BME280;32907;41.412;2.164;2022-10-16T14:40:59;100672.97;;;25.87;58.18
47154;BME280;32907;41.412;2.164;2022-10-16T14:43:41;100756.72;;;26.45;58.50
47154;BME280;32907;41.412;2.164;2022-10-16T14:46:16;100781.78;;;26.53;58.63
47154;BME280;32907;41.412;2.164;2022-10-16T14:48:50;100731.25;;;26.19;58.11
47154;BME280;32907;41.412;2.164;2022-10-16T14:51:19;100750.63;;;26.31;58.26
47154;BME280;32907;41.412;2.164;2022-10-16T14:53:47;100777.09;;;26.44;58.64
47154;BME280;32907;41.412;2.164;2022-10-16T14:56:21;100761.28;;;26.33;58.49
47154;BME280;32907;41.412;2.164;2022-10-16T14:58:51;100722.22;;;26.10;58.55
47154;BME280;32907;41.412;2.164;2022-10-16T15:01:19;100784.22;;;26.45;58.49
47154;BME280;32907;41.412;2.164;2022-10-16T15:03:47;100751.59;;;26.27;58.02